Time,TemperatureF,DewpointF,PressureIn,WindDirection,WindDirectionDegrees,WindSpeedMPH,WindSpeedGustMPH,Humidity,HourlyPrecipIn,Conditions,Clouds,dailyrainin,SoftwareType,DateUTC
2013-08-17 00:02:00,63.1,55.4,30.03,ENE,63,0.0,0.0,76,0.00,,---,0.00,VWS V14.00,2013-08-17 07:02:00,
2013-08-17 00:07:00,62.9,55.6,30.04,ENE,63,0.0,0.0,77,0.00,,---,0.00,VWS V14.00,2013-08-17 07:07:00,
2013-08-17 00:12:00,62.7,55.8,30.04,ENE,63,0.0,0.0,78,0.00,,---,0.00,VWS V14.00,2013-08-17 07:12:00,
2013-08-17 00:17:00,62.5,55.6,30.04,ENE,63,0.0,1.0,78,0.00,,---,0.00,VWS V14.00,2013-08-17 07:17:00,
2013-08-17 00:22:00,62.2,55.6,30.03,ENE,63,0.0,1.0,79,0.00,,---,0.00,VWS V14.00,2013-08-17 07:22:00,
2013-08-17 00:27:00,62.1,55.2,30.04,ENE,63,0.0,1.0,78,0.00,,---,0.00,VWS V14.00,2013-08-17 07:27:00,
2013-08-17 00:32:00,62.0,55.4,30.04,ENE,63,0.0,0.0,79,0.00,,---,0.00,VWS V14.00,2013-08-17 07:32:00,
2013-08-17 00:38:00,61.9,55.7,30.04,ENE,63,0.0,0.0,80,0.00,,---,0.00,VWS V14.00,2013-08-17 07:38:00,
2013-08-17 00:43:00,61.8,55.9,30.03,ENE,63,0.0,0.0,81,0.00,,---,0.00,VWS V14.00,2013-08-17 07:43:00,
2013-08-17 00:48:00,61.7,55.8,30.03,ENE,63,0.0,0.0,81,0.00,,---,0.00,VWS V14.00,2013-08-17 07:48:00,
2013-08-17 00:53:00,61.6,55.7,30.04,ENE,63,0.0,0.0,81,0.00,,---,0.00,VWS V14.00,2013-08-17 07:53:00,
2013-08-17 00:58:00,61.4,55.5,30.03,ENE,63,0.0,0.0,81,0.00,,---,0.00,VWS V14.00,2013-08-17 07:58:00,
2013-08-17 01:03:00,61.3,55.8,30.03,ENE,63,0.0,0.0,82,0.00,,---,0.00,VWS V14.00,2013-08-17 08:03:00,
2013-08-17 01:08:00,61.0,55.5,30.03,ENE,63,0.0,0.0,82,0.00,,---,0.00,VWS V14.00,2013-08-17 08:08:00,
2013-08-17 01:13:00,60.9,55.7,30.03,ENE,63,0.0,0.0,83,0.00,,---,0.00,VWS V14.00,2013-08-17 08:13:00,
2013-08-17 01:18:00,60.6,55.1,30.03,ENE,63,0.0,0.0,82,0.00,,---,0.00,VWS V14.00,2013-08-17 08:18:00,
2013-08-17 01:23:00,60.4,55.2,30.03,ENE,63,0.0,0.0,83,0.00,,---,0.00,VWS V14.00,2013-08-17 08:23:00,
2013-08-17 01:28:00,60.1,54.9,30.03,ENE,63,0.0,0.0,83,0.00,,---,0.00,VWS V14.00,2013-08-17 08:28:00,
2013-08-17 01:33:00,59.9,55.1,30.03,ENE,63,0.0,0.0,84,0.00,,---,0.00,VWS V14.00,2013-08-17 08:33:00,
2013-08-17 01:38:00,59.6,54.8,30.03,ENE,63,0.0,0.0,84,0.00,,---,0.00,VWS V14.00,2013-08-17 08:38:00,
2013-08-17 01:43:00,59.4,54.9,30.03,ENE,63,0.0,0.0,85,0.00,,---,0.00,VWS V14.00,2013-08-17 08:43:00,
2013-08-17 01:48:00,59.2,54.7,30.03,ENE,63,0.0,0.0,85,0.00,,---,0.00,VWS V14.00,2013-08-17 08:48:00,
2013-08-17 01:53:00,59.0,54.5,30.03,ENE,63,0.0,0.0,85,0.00,,---,0.00,VWS V14.00,2013-08-17 08:53:00,
2013-08-17 01:58:00,58.8,54.6,30.03,ENE,63,0.0,0.0,86,0.00,,---,0.00,VWS V14.00,2013-08-17 08:58:00,
2013-08-17 02:03:00,58.7,54.5,30.03,ENE,63,0.0,0.0,86,0.00,,---,0.00,VWS V14.00,2013-08-17 09:03:00,
2013-08-17 02:08:00,58.5,54.7,30.03,ENE,63,0.0,0.0,87,0.00,,---,0.00,VWS V14.00,2013-08-17 09:08:00,
2013-08-17 02:13:00,58.3,54.5,30.03,ENE,63,0.0,0.0,87,0.00,,---,0.00,VWS V14.00,2013-08-17 09:13:00,
2013-08-17 02:18:00,58.1,54.3,30.03,ENE,63,0.0,0.0,87,0.00,,---,0.00,VWS V14.00,2013-08-17 09:18:00,
2013-08-17 02:23:00,58.0,54.5,30.03,ENE,63,0.0,0.0,88,0.00,,---,0.00,VWS V14.00,2013-08-17 09:23:00,
2013-08-17 02:28:00,57.9,54.4,30.03,ENE,63,0.0,0.0,88,0.00,,---,0.00,VWS V14.00,2013-08-17 09:28:00,
2013-08-17 02:33:00,57.8,54.3,30.03,ENE,63,0.0,0.0,88,0.00,,---,0.00,VWS V14.00,2013-08-17 09:33:00,
2013-08-17 02:38:00,57.7,54.5,30.03,ENE,63,0.0,0.0,89,0.00,,---,0.00,VWS V14.00,2013-08-17 09:38:00,
2013-08-17 02:43:00,57.6,54.4,30.03,ENE,63,0.0,0.0,89,0.00,,---,0.00,VWS V14.00,2013-08-17 09:43:00,
2013-08-17 02:48:00,57.4,54.2,30.03,ENE,63,0.0,0.0,89,0.00,,---,0.00,VWS V14.00,2013-08-17 09:48:00,
2013-08-17 02:54:00,57.2,54.0,30.03,ENE,63,0.0,0.0,89,0.00,,---,0.00,VWS V14.00,2013-08-17 09:54:00,
2013-08-17 02:59:00,57.1,53.9,30.04,ENE,63,0.0,0.0,89,0.00,,---,0.00,VWS V14.00,2013-08-17 09:59:00,
2013-08-17 03:04:00,57.0,53.8,30.04,ENE,63,0.0,0.0,89,0.00,,---,0.00,VWS V14.00,2013-08-17 10:04:00,
2013-08-17 03:09:00,56.9,54.0,30.04,ENE,63,0.0,0.0,90,0.00,,---,0.00,VWS V14.00,2013-08-17 10:09:00,
2013-08-17 03:14:00,56.9,54.0,30.04,ENE,63,0.0,0.0,90,0.00,,---,0.00,VWS V14.00,2013-08-17 10:14:00,
2013-08-17 03:19:00,57.2,55.2,30.04,ENE,63,0.0,0.0,93,0.00,,---,0.00,VWS V14.00,2013-08-17 10:19:00,
2013-08-17 03:24:00,57.5,55.5,30.04,ENE,63,0.0,0.0,93,0.00,,---,0.00,VWS V14.00,2013-08-17 10:24:00,
2013-08-17 03:29:00,57.4,55.1,30.04,ENE,63,0.0,0.0,92,0.00,,---,0.00,VWS V14.00,2013-08-17 10:29:00,
2013-08-17 03:34:00,57.1,54.2,30.04,ENE,63,0.0,0.0,90,0.00,,---,0.00,VWS V14.00,2013-08-17 10:34:00,
2013-08-17 03:39:00,56.8,54.2,30.04,ENE,63,0.0,0.0,91,0.00,,---,0.00,VWS V14.00,2013-08-17 10:39:00,
2013-08-17 03:44:00,56.6,54.0,30.05,ENE,63,0.0,0.0,91,0.00,,---,0.00,VWS V14.00,2013-08-17 10:44:00,
2013-08-17 03:49:00,56.4,53.8,30.04,ENE,63,0.0,0.0,91,0.00,,---,0.00,VWS V14.00,2013-08-17 10:49:00,
2013-08-17 03:54:00,56.2,53.6,30.05,ENE,63,0.0,0.0,91,0.00,,---,0.00,VWS V14.00,2013-08-17 10:54:00,
2013-08-17 03:59:00,56.0,53.7,30.05,ENE,63,0.0,0.0,92,0.00,,---,0.00,VWS V14.00,2013-08-17 10:59:00,
2013-08-17 04:04:00,55.9,53.6,30.04,ENE,63,0.0,0.0,92,0.00,,---,0.00,VWS V14.00,2013-08-17 11:04:00,
2013-08-17 04:09:00,55.9,53.6,30.04,ENE,63,0.0,0.0,92,0.00,,---,0.00,VWS V14.00,2013-08-17 11:09:00,
2013-08-17 04:14:00,55.9,53.9,30.05,ENE,63,0.0,0.0,93,0.00,,---,0.00,VWS V14.00,2013-08-17 11:14:00,
2013-08-17 04:19:00,55.9,53.9,30.05,ENE,63,0.0,0.0,93,0.00,,---,0.00,VWS V14.00,2013-08-17 11:19:00,
2013-08-17 04:24:00,56.0,54.0,30.05,ENE,63,0.0,0.0,93,0.00,,---,0.00,VWS V14.00,2013-08-17 11:24:00,
2013-08-17 04:29:00,56.0,54.0,30.05,ENE,63,0.0,0.0,93,0.00,,---,0.00,VWS V14.00,2013-08-17 11:29:00,
2013-08-17 04:34:00,55.9,53.9,30.05,ENE,63,0.0,0.0,93,0.00,,---,0.00,VWS V14.00,2013-08-17 11:34:00,
2013-08-17 04:39:00,55.9,53.6,30.05,ENE,63,0.0,0.0,92,0.00,,---,0.00,VWS V14.00,2013-08-17 11:39:00,
2013-08-17 04:44:00,55.8,53.8,30.05,ENE,63,0.0,0.0,93,0.00,,---,0.00,VWS V14.00,2013-08-17 11:44:00,
2013-08-17 04:49:00,55.9,53.9,30.05,ENE,63,0.0,0.0,93,0.00,,---,0.00,VWS V14.00,2013-08-17 11:49:00,
2013-08-17 04:54:00,55.9,53.9,30.04,ENE,63,0.0,0.0,93,0.00,,---,0.00,VWS V14.00,2013-08-17 11:54:00,
2013-08-17 04:59:00,55.9,53.9,30.04,ENE,63,0.0,0.0,93,0.00,,---,0.00,VWS V14.00,2013-08-17 11:59:00,
2013-08-17 05:04:00,56.2,54.5,30.04,ENE,63,0.0,0.0,94,0.00,,---,0.00,VWS V14.00,2013-08-17 12:04:00,
2013-08-17 05:06:00,56.3,54.9,30.04,ENE,63,0.0,0.0,95,0.00,,---,0.00,VWS V14.00,2013-08-17 12:06:00,
2013-08-17 05:11:00,56.6,55.2,30.04,ENE,63,0.0,0.0,95,0.00,,---,0.00,VWS V14.00,2013-08-17 12:11:00,
2013-08-17 05:16:00,56.6,54.9,30.05,ENE,63,0.0,0.0,94,0.00,,---,0.00,VWS V14.00,2013-08-17 12:16:00,
2013-08-17 05:21:00,56.2,54.2,30.05,ENE,63,0.0,0.0,93,0.00,,---,0.00,VWS V14.00,2013-08-17 12:21:00,
2013-08-17 05:26:00,55.8,53.5,30.05,ENE,63,0.0,0.0,92,0.00,,---,0.00,VWS V14.00,2013-08-17 12:26:00,
2013-08-17 05:31:00,55.4,53.1,30.05,ENE,63,0.0,0.0,92,0.00,,---,0.00,VWS V14.00,2013-08-17 12:31:00,
2013-08-17 05:36:00,55.1,52.8,30.05,ENE,63,0.0,0.0,92,0.00,,---,0.00,VWS V14.00,2013-08-17 12:36:00,
2013-08-17 05:41:00,54.9,52.6,30.05,ENE,63,0.0,0.0,92,0.00,,---,0.00,VWS V14.00,2013-08-17 12:41:00,
2013-08-17 05:46:00,54.8,52.8,30.05,ENE,63,0.0,0.0,93,0.00,,---,0.00,VWS V14.00,2013-08-17 12:46:00,
2013-08-17 05:51:00,54.6,52.6,30.05,ENE,63,0.0,0.0,93,0.00,,---,0.00,VWS V14.00,2013-08-17 12:51:00,
2013-08-17 05:56:00,54.5,52.5,30.05,ENE,63,0.0,0.0,93,0.00,,---,0.00,VWS V14.00,2013-08-17 12:56:00,
2013-08-17 06:01:00,54.3,52.3,30.05,ENE,63,0.0,0.0,93,0.00,,---,0.00,VWS V14.00,2013-08-17 13:01:00,
2013-08-17 06:06:00,54.1,52.1,30.05,ENE,63,0.0,0.0,93,0.00,,---,0.00,VWS V14.00,2013-08-17 13:06:00,
2013-08-17 06:11:00,54.0,52.0,30.05,ENE,63,0.0,0.0,93,0.00,,---,0.00,VWS V14.00,2013-08-17 13:11:00,
2013-08-17 06:16:00,54.0,52.0,30.05,ENE,63,0.0,0.0,93,0.00,,---,0.00,VWS V14.00,2013-08-17 13:16:00,
2013-08-17 06:21:00,54.1,52.4,30.06,ENE,63,0.0,0.0,94,0.00,,---,0.00,VWS V14.00,2013-08-17 13:21:00,
2013-08-17 06:26:00,54.0,52.0,30.06,ENE,63,0.0,0.0,93,0.00,,---,0.00,VWS V14.00,2013-08-17 13:26:00,
2013-08-17 06:31:00,53.8,51.8,30.06,ENE,63,0.0,0.0,93,0.00,,---,0.00,VWS V14.00,2013-08-17 13:31:00,
2013-08-17 06:36:00,53.7,51.7,30.06,ENE,63,0.0,0.0,93,0.00,,---,0.00,VWS V14.00,2013-08-17 13:36:00,
2013-08-17 06:41:00,53.7,51.7,30.06,ENE,63,0.0,0.0,93,0.00,,---,0.00,VWS V14.00,2013-08-17 13:41:00,
2013-08-17 06:46:00,53.7,51.7,30.06,ENE,63,0.0,0.0,93,0.00,,---,0.00,VWS V14.00,2013-08-17 13:46:00,
2013-08-17 06:51:00,53.8,52.1,30.06,ENE,63,0.0,0.0,94,0.00,,---,0.00,VWS V14.00,2013-08-17 13:51:00,
2013-08-17 06:56:00,53.9,52.2,30.07,ENE,63,0.0,0.0,94,0.00,,---,0.00,VWS V14.00,2013-08-17 13:56:00,
2013-08-17 07:01:00,54.2,52.5,30.07,ENE,63,0.0,0.0,94,0.00,,---,0.00,VWS V14.00,2013-08-17 14:01:00,
2013-08-17 07:06:00,54.3,52.9,30.07,ENE,63,0.0,0.0,95,0.00,,---,0.00,VWS V14.00,2013-08-17 14:06:00,
2013-08-17 07:11:00,54.4,53.0,30.07,ENE,63,0.0,0.0,95,0.00,,---,0.00,VWS V14.00,2013-08-17 14:11:00,
2013-08-17 07:16:00,54.8,53.7,30.07,ENE,63,0.0,0.0,96,0.00,,---,0.00,VWS V14.00,2013-08-17 14:16:00,
2013-08-17 07:21:00,55.3,54.2,30.07,ENE,63,0.0,0.0,96,0.00,,---,0.00,VWS V14.00,2013-08-17 14:21:00,
2013-08-17 07:26:00,55.5,54.1,30.07,ENE,63,0.0,0.0,95,0.00,,---,0.00,VWS V14.00,2013-08-17 14:26:00,
2013-08-17 07:32:00,55.4,54.0,30.08,ENE,63,0.0,0.0,95,0.00,,---,0.00,VWS V14.00,2013-08-17 14:32:00,
2013-08-17 07:37:00,55.5,54.1,30.08,ENE,63,0.0,0.0,95,0.00,,---,0.00,VWS V14.00,2013-08-17 14:37:00,
2013-08-17 07:42:00,55.6,54.2,30.08,ENE,63,0.0,0.0,95,0.00,,---,0.00,VWS V14.00,2013-08-17 14:42:00,
2013-08-17 07:47:00,55.8,54.4,30.08,ENE,63,0.0,0.0,95,0.00,,---,0.00,VWS V14.00,2013-08-17 14:47:00,
2013-08-17 07:52:00,56.2,55.1,30.07,ENE,63,0.0,0.0,96,0.00,,---,0.00,VWS V14.00,2013-08-17 14:52:00,
2013-08-17 07:57:00,56.6,55.5,30.07,ENE,63,0.0,0.0,96,0.00,,---,0.00,VWS V14.00,2013-08-17 14:57:00,
2013-08-17 08:02:00,56.9,55.8,30.08,ENE,63,0.0,0.0,96,0.00,,---,0.00,VWS V14.00,2013-08-17 15:02:00,
2013-08-17 08:07:00,57.1,56.0,30.08,ENE,63,0.0,0.0,96,0.00,,---,0.00,VWS V14.00,2013-08-17 15:07:00,
2013-08-17 08:12:00,57.6,56.5,30.08,SE,130,0.0,0.0,96,0.00,,---,0.00,VWS V14.00,2013-08-17 15:12:00,
2013-08-17 08:17:00,58.0,56.6,30.08,SSW,208,0.0,0.0,95,0.00,,---,0.00,VWS V14.00,2013-08-17 15:17:00,
2013-08-17 08:22:00,58.6,56.6,30.08,ESE,122,0.0,0.0,93,0.00,,---,0.00,VWS V14.00,2013-08-17 15:22:00,
2013-08-17 08:27:00,59.2,56.9,30.08,South,180,0.0,0.0,92,0.00,,---,0.00,VWS V14.00,2013-08-17 15:27:00,
2013-08-17 08:32:00,59.8,56.9,30.08,SE,128,0.0,0.0,90,0.00,,---,0.00,VWS V14.00,2013-08-17 15:32:00,
2013-08-17 08:37:00,60.4,56.8,30.08,South,184,0.0,0.0,88,0.00,,---,0.00,VWS V14.00,2013-08-17 15:37:00,
2013-08-17 08:42:00,60.9,56.7,30.08,South,176,0.0,0.0,86,0.00,,---,0.00,VWS V14.00,2013-08-17 15:42:00,
2013-08-17 08:47:00,61.4,56.9,30.08,South,170,0.0,0.0,85,0.00,,---,0.00,VWS V14.00,2013-08-17 15:47:00,
2013-08-17 08:52:00,61.8,56.9,30.08,SSE,159,0.0,0.0,84,0.00,,---,0.00,VWS V14.00,2013-08-17 15:52:00,
2013-08-17 08:57:00,62.2,57.3,30.08,South,174,0.0,0.0,84,0.00,,---,0.00,VWS V14.00,2013-08-17 15:57:00,
2013-08-17 09:02:00,62.7,57.1,30.08,SSW,206,1.0,2.0,82,0.00,,---,0.00,VWS V14.00,2013-08-17 16:02:00,
2013-08-17 09:07:00,63.0,57.1,30.08,South,169,4.0,6.0,81,0.00,,---,0.00,VWS V14.00,2013-08-17 16:07:00,
2013-08-17 09:12:00,63.4,57.1,30.07,South,191,2.0,6.0,80,0.00,,---,0.00,VWS V14.00,2013-08-17 16:12:00,
2013-08-17 09:17:00,63.9,57.6,30.07,South,175,4.0,7.0,80,0.00,,---,0.00,VWS V14.00,2013-08-17 16:17:00,
2013-08-17 09:22:00,64.3,57.3,30.07,South,190,2.0,7.0,78,0.00,,---,0.00,VWS V14.00,2013-08-17 16:22:00,
2013-08-17 09:27:00,64.7,57.3,30.07,South,172,2.0,7.0,77,0.00,,---,0.00,VWS V14.00,2013-08-17 16:27:00,
2013-08-17 09:32:00,65.0,57.3,30.08,SW,229,2.0,4.0,76,0.00,,---,0.00,VWS V14.00,2013-08-17 16:32:00,
2013-08-17 09:37:00,65.3,57.2,30.08,SSW,203,2.0,4.0,75,0.00,,---,0.00,VWS V14.00,2013-08-17 16:37:00,
2013-08-17 09:42:00,65.7,57.2,30.07,SSE,161,0.0,4.0,74,0.00,,---,0.00,VWS V14.00,2013-08-17 16:42:00,
2013-08-17 09:48:00,65.8,56.9,30.08,South,185,0.0,8.0,73,0.00,,---,0.00,VWS V14.00,2013-08-17 16:48:00,
2013-08-17 09:53:00,66.1,57.2,30.08,SSE,165,4.0,8.0,73,0.00,,---,0.00,VWS V14.00,2013-08-17 16:53:00,
2013-08-17 09:58:00,66.4,57.1,30.08,East,94,0.0,8.0,72,0.00,,---,0.00,VWS V14.00,2013-08-17 16:58:00,
2013-08-17 10:03:00,66.7,57.4,30.08,SE,130,2.0,4.0,72,0.00,,---,0.00,VWS V14.00,2013-08-17 17:03:00,
2013-08-17 10:08:00,67.1,57.4,30.08,SW,217,1.0,5.0,71,0.00,,---,0.00,VWS V14.00,2013-08-17 17:08:00,
2013-08-17 10:13:00,67.5,57.8,30.08,SE,132,0.0,5.0,71,0.00,,---,0.00,VWS V14.00,2013-08-17 17:13:00,
2013-08-17 10:18:00,67.8,58.5,30.08,East,98,0.0,5.0,72,0.00,,---,0.00,VWS V14.00,2013-08-17 17:18:00,
2013-08-17 10:23:00,68.3,59.7,30.08,ESE,104,1.0,5.0,74,0.00,,---,0.00,VWS V14.00,2013-08-17 17:23:00,
2013-08-17 10:28:00,68.6,59.6,30.08,ESE,114,0.0,5.0,73,0.00,,---,0.00,VWS V14.00,2013-08-17 17:28:00,
2013-08-17 10:33:00,68.8,58.6,30.08,NNE,14,0.0,0.0,70,0.00,,---,0.00,VWS V14.00,2013-08-17 17:33:00,
2013-08-17 10:38:00,69.1,58.9,30.07,North,360,0.0,0.0,70,0.00,,---,0.00,VWS V14.00,2013-08-17 17:38:00,
2013-08-17 10:43:00,69.4,59.2,30.07,NE,44,0.0,0.0,70,0.00,,---,0.00,VWS V14.00,2013-08-17 17:43:00,
2013-08-17 10:48:00,69.6,59.0,30.07,West,280,0.0,0.0,69,0.00,,---,0.00,VWS V14.00,2013-08-17 17:48:00,
2013-08-17 10:53:00,69.8,58.8,30.07,SSE,159,0.0,0.0,68,0.00,,---,0.00,VWS V14.00,2013-08-17 17:53:00,
2013-08-17 10:58:00,69.7,59.1,30.08,NNW,344,2.0,6.0,69,0.00,,---,0.00,VWS V14.00,2013-08-17 17:58:00,
2013-08-17 11:03:00,70.1,60.7,30.08,NE,40,2.0,3.0,72,0.00,,---,0.00,VWS V14.00,2013-08-17 18:03:00,
2013-08-17 11:08:00,70.5,59.8,30.07,NNE,31,2.0,4.0,69,0.00,,---,0.00,VWS V14.00,2013-08-17 18:08:00,
2013-08-17 11:13:00,70.6,59.1,30.07,ENE,68,0.0,4.0,67,0.00,,---,0.00,VWS V14.00,2013-08-17 18:13:00,
2013-08-17 11:18:00,71.0,59.9,30.07,South,182,2.0,4.0,68,0.00,,---,0.00,VWS V14.00,2013-08-17 18:18:00,
2013-08-17 11:23:00,71.4,58.6,30.07,SW,215,2.0,5.0,64,0.00,,---,0.00,VWS V14.00,2013-08-17 18:23:00,
2013-08-17 11:28:00,71.6,59.2,30.07,SE,124,0.0,6.0,65,0.00,,---,0.00,VWS V14.00,2013-08-17 18:28:00,
2013-08-17 11:33:00,71.9,60.4,30.07,ENE,75,0.0,2.0,67,0.00,,---,0.00,VWS V14.00,2013-08-17 18:33:00,
2013-08-17 11:38:00,72.5,60.1,30.06,NNE,12,2.0,5.0,65,0.00,,---,0.00,VWS V14.00,2013-08-17 18:38:00,
2013-08-17 11:43:00,73.0,59.7,30.07,NE,54,2.0,5.0,63,0.00,,---,0.00,VWS V14.00,2013-08-17 18:43:00,
2013-08-17 11:48:00,73.3,59.5,30.06,ESE,115,2.0,5.0,62,0.00,,---,0.00,VWS V14.00,2013-08-17 18:48:00,
2013-08-17 11:53:00,73.3,59.0,30.06,South,184,4.0,5.0,61,0.00,,---,0.00,VWS V14.00,2013-08-17 18:53:00,
2013-08-17 11:58:00,73.1,59.3,30.06,South,176,1.0,7.0,62,0.00,,---,0.00,VWS V14.00,2013-08-17 18:58:00,
2013-08-17 12:03:00,73.4,59.2,30.06,West,275,2.0,5.0,61,0.00,,---,0.00,VWS V14.00,2013-08-17 19:03:00,
2013-08-17 12:09:00,73.7,59.4,30.06,ENE,76,1.0,6.0,61,0.00,,---,0.00,VWS V14.00,2013-08-17 19:09:00,
2013-08-17 12:14:00,73.8,60.4,30.05,SE,136,5.0,6.0,63,0.00,,---,0.00,VWS V14.00,2013-08-17 19:14:00,
2013-08-17 12:19:00,73.9,60.5,30.05,SSE,155,1.0,6.0,63,0.00,,---,0.00,VWS V14.00,2013-08-17 19:19:00,
2013-08-17 12:24:00,74.2,59.9,30.05,SE,133,1.0,6.0,61,0.00,,---,0.00,VWS V14.00,2013-08-17 19:24:00,
2013-08-17 12:29:00,74.3,59.5,30.05,SE,146,2.0,6.0,60,0.00,,---,0.00,VWS V14.00,2013-08-17 19:29:00,
2013-08-17 12:34:00,74.4,60.1,30.05,ENE,61,1.0,3.0,61,0.00,,---,0.00,VWS V14.00,2013-08-17 19:34:00,
2013-08-17 12:39:00,75.0,61.1,30.04,WSW,238,1.0,4.0,62,0.00,,---,0.00,VWS V14.00,2013-08-17 19:39:00,
2013-08-17 12:44:00,75.5,61.1,30.05,SE,142,2.0,7.0,61,0.00,,---,0.00,VWS V14.00,2013-08-17 19:44:00,
2013-08-17 12:49:00,75.4,60.1,30.04,SSW,204,3.0,7.0,59,0.00,,---,0.00,VWS V14.00,2013-08-17 19:49:00,
2013-08-17 12:54:00,75.1,60.3,30.04,SSE,150,2.0,7.0,60,0.00,,---,0.00,VWS V14.00,2013-08-17 19:54:00,
2013-08-17 12:59:00,75.2,60.4,30.04,SSW,199,4.0,8.0,60,0.00,,---,0.00,VWS V14.00,2013-08-17 19:59:00,
2013-08-17 13:04:00,75.5,61.1,30.04,ENE,61,1.0,4.0,61,0.00,,---,0.00,VWS V14.00,2013-08-17 20:04:00,
2013-08-17 13:09:00,76.2,60.8,30.04,NE,51,1.0,4.0,59,0.00,,---,0.00,VWS V14.00,2013-08-17 20:09:00,
2013-08-17 13:14:00,76.6,60.7,30.04,WSW,244,1.0,5.0,58,0.00,,---,0.00,VWS V14.00,2013-08-17 20:14:00,
2013-08-17 13:19:00,77.1,61.2,30.04,NE,43,1.0,5.0,58,0.00,,---,0.00,VWS V14.00,2013-08-17 20:19:00,
2013-08-17 13:24:00,77.3,60.4,30.04,SE,144,0.0,5.0,56,0.00,,---,0.00,VWS V14.00,2013-08-17 20:24:00,
2013-08-17 13:29:00,77.8,60.4,30.04,NW,317,6.0,6.0,55,0.00,,---,0.00,VWS V14.00,2013-08-17 20:29:00,
2013-08-17 13:34:00,78.4,60.9,30.03,NNW,339,1.0,6.0,55,0.00,,---,0.00,VWS V14.00,2013-08-17 20:34:00,
2013-08-17 13:39:00,78.9,61.9,30.04,NNE,19,0.0,6.0,56,0.00,,---,0.00,VWS V14.00,2013-08-17 20:39:00,
2013-08-17 13:44:00,79.3,61.2,30.04,ENE,74,0.0,6.0,54,0.00,,---,0.00,VWS V14.00,2013-08-17 20:44:00,
2013-08-17 13:49:00,79.2,61.1,30.03,SE,143,4.0,6.0,54,0.00,,---,0.00,VWS V14.00,2013-08-17 20:49:00,
2013-08-17 13:54:00,78.7,61.2,30.03,North,5,0.0,6.0,55,0.00,,---,0.00,VWS V14.00,2013-08-17 20:54:00,
2013-08-17 13:59:00,78.9,61.9,30.03,NW,306,2.0,6.0,56,0.00,,---,0.00,VWS V14.00,2013-08-17 20:59:00,
2013-08-17 14:04:00,79.4,60.8,30.03,East,87,1.0,3.0,53,0.00,,---,0.00,VWS V14.00,2013-08-17 21:04:00,
2013-08-17 14:09:00,79.8,60.6,30.03,SSW,198,0.0,5.0,52,0.00,,---,0.00,VWS V14.00,2013-08-17 21:09:00,
2013-08-17 14:14:00,79.8,61.7,30.03,SSW,202,0.0,5.0,54,0.00,,---,0.00,VWS V14.00,2013-08-17 21:14:00,
2013-08-17 14:19:00,80.0,61.3,30.03,SSE,155,4.0,5.0,53,0.00,,---,0.00,VWS V14.00,2013-08-17 21:19:00,
2013-08-17 14:25:00,79.8,60.1,30.02,NE,55,1.0,5.0,51,0.00,,---,0.00,VWS V14.00,2013-08-17 21:25:00,
2013-08-17 14:29:00,80.0,59.7,30.02,SW,229,0.0,5.0,50,0.00,,---,0.00,VWS V14.00,2013-08-17 21:29:00,
2013-08-17 14:35:00,80.4,61.2,30.02,WNW,288,1.0,3.0,52,0.00,,---,0.00,VWS V14.00,2013-08-17 21:35:00,
2013-08-17 14:40:00,80.9,60.5,30.02,South,177,4.0,4.0,50,0.00,,---,0.00,VWS V14.00,2013-08-17 21:40:00,
2013-08-17 14:45:00,81.2,62.5,30.02,North,5,1.0,4.0,53,0.00,,---,0.00,VWS V14.00,2013-08-17 21:45:00,
2013-08-17 14:50:00,81.7,60.1,30.02,SE,140,1.0,4.0,48,0.00,,---,0.00,VWS V14.00,2013-08-17 21:50:00,
2013-08-17 14:55:00,82.0,59.8,30.02,South,188,1.0,4.0,47,0.00,,---,0.00,VWS V14.00,2013-08-17 21:55:00,
2013-08-17 15:00:00,82.2,60.6,30.01,NE,46,1.0,4.0,48,0.00,,---,0.00,VWS V14.00,2013-08-17 22:00:00,
2013-08-17 15:05:00,82.3,59.5,30.01,ESE,116,0.0,2.0,46,0.00,,---,0.00,VWS V14.00,2013-08-17 22:05:00,
2013-08-17 15:10:00,82.5,60.3,30.01,SE,124,4.0,4.0,47,0.00,,---,0.00,VWS V14.00,2013-08-17 22:10:00,
2013-08-17 15:15:00,82.3,61.2,30.01,NE,54,1.0,5.0,49,0.00,,---,0.00,VWS V14.00,2013-08-17 22:15:00,
2013-08-17 15:20:00,82.6,62.7,30.01,NE,38,2.0,5.0,51,0.00,,---,0.00,VWS V14.00,2013-08-17 22:20:00,
2013-08-17 15:25:00,82.9,60.6,30.01,SW,218,2.0,5.0,47,0.00,,---,0.00,VWS V14.00,2013-08-17 22:25:00,
2013-08-17 15:30:00,82.9,61.2,30.01,NNE,15,0.0,5.0,48,0.00,,---,0.00,VWS V14.00,2013-08-17 22:30:00,
2013-08-17 15:35:00,82.6,61.5,30.01,SE,124,0.0,5.0,49,0.00,,---,0.00,VWS V14.00,2013-08-17 22:35:00,
2013-08-17 15:40:00,82.6,61.5,30.01,NNW,333,1.0,5.0,49,0.00,,---,0.00,VWS V14.00,2013-08-17 22:40:00,
2013-08-17 15:45:00,82.3,59.5,30.00,ENE,64,3.0,7.0,46,0.00,,---,0.00,VWS V14.00,2013-08-17 22:45:00,
2013-08-17 15:50:00,82.2,62.3,30.00,NW,309,0.0,7.0,51,0.00,,---,0.00,VWS V14.00,2013-08-17 22:50:00,
2013-08-17 15:55:00,82.5,62.0,30.00,SE,126,0.0,7.0,50,0.00,,---,0.00,VWS V14.00,2013-08-17 22:55:00,
2013-08-17 16:00:00,82.8,60.5,30.00,West,281,3.0,7.0,47,0.00,,---,0.00,VWS V14.00,2013-08-17 23:00:00,
2013-08-17 16:05:00,82.9,59.4,30.00,West,279,2.0,4.0,45,0.00,,---,0.00,VWS V14.00,2013-08-17 23:05:00,
2013-08-17 16:10:00,83.3,61.0,30.00,NW,323,2.0,6.0,47,0.00,,---,0.00,VWS V14.00,2013-08-17 23:10:00,
2013-08-17 16:15:00,83.4,60.5,30.00,NW,315,2.0,6.0,46,0.00,,---,0.00,VWS V14.00,2013-08-17 23:15:00,
2013-08-17 16:20:00,83.4,61.7,30.00,NE,44,1.0,6.0,48,0.00,,---,0.00,VWS V14.00,2013-08-17 23:20:00,
2013-08-17 16:25:00,83.3,61.0,30.00,North,360,2.0,6.0,47,0.00,,---,0.00,VWS V14.00,2013-08-17 23:25:00,
2013-08-17 16:30:00,83.4,59.2,30.00,SE,144,5.0,6.0,44,0.00,,---,0.00,VWS V14.00,2013-08-17 23:30:00,
2013-08-17 16:35:00,82.7,61.0,30.00,South,178,6.0,6.0,48,0.00,,---,0.00,VWS V14.00,2013-08-17 23:35:00,
2013-08-17 16:40:00,82.4,60.2,30.00,SSE,165,4.0,6.0,47,0.00,,---,0.00,VWS V14.00,2013-08-17 23:40:00,
2013-08-17 16:45:00,82.6,59.8,30.00,South,180,3.0,6.0,46,0.00,,---,0.00,VWS V14.00,2013-08-17 23:45:00,
2013-08-17 16:50:00,82.2,60.6,30.00,NNE,16,0.0,6.0,48,0.00,,---,0.00,VWS V14.00,2013-08-17 23:50:00,
2013-08-17 16:55:00,82.2,60.6,29.99,NE,44,2.0,6.0,48,0.00,,---,0.00,VWS V14.00,2013-08-17 23:55:00,
2013-08-17 17:01:00,82.4,61.3,29.99,North,5,0.0,6.0,49,0.00,,---,0.00,VWS V14.00,2013-08-18 00:01:00,
2013-08-17 17:06:00,82.3,60.7,29.99,NNW,327,1.0,4.0,48,0.00,,---,0.00,VWS V14.00,2013-08-18 00:06:00,
2013-08-17 17:11:00,82.1,59.9,29.99,North,350,1.0,4.0,47,0.00,,---,0.00,VWS V14.00,2013-08-18 00:11:00,
2013-08-17 17:16:00,81.9,60.9,29.99,North,350,0.0,4.0,49,0.00,,---,0.00,VWS V14.00,2013-08-18 00:16:00,
2013-08-17 17:21:00,81.6,60.6,30.00,NNW,343,0.0,4.0,49,0.00,,---,0.00,VWS V14.00,2013-08-18 00:21:00,
2013-08-17 17:26:00,81.3,62.0,30.00,North,355,0.0,6.0,52,0.00,,---,0.00,VWS V14.00,2013-08-18 00:26:00,
2013-08-17 17:31:00,81.1,61.3,30.00,WNW,303,0.0,6.0,51,0.00,,---,0.00,VWS V14.00,2013-08-18 00:31:00,
2013-08-17 17:36:00,81.1,62.9,29.99,SW,217,0.0,4.0,54,0.00,,---,0.00,VWS V14.00,2013-08-18 00:36:00,
2013-08-17 17:41:00,81.1,62.4,29.99,WNW,291,0.0,4.0,53,0.00,,---,0.00,VWS V14.00,2013-08-18 00:41:00,
2013-08-17 17:46:00,81.3,62.0,29.99,NW,317,2.0,4.0,52,0.00,,---,0.00,VWS V14.00,2013-08-18 00:46:00,
2013-08-17 17:51:00,81.4,63.2,29.99,NW,308,0.0,4.0,54,0.00,,---,0.00,VWS V14.00,2013-08-18 00:51:00,
2013-08-17 17:56:00,81.1,61.8,29.99,NE,35,1.0,4.0,52,0.00,,---,0.00,VWS V14.00,2013-08-18 00:56:00,
2013-08-17 18:01:00,80.6,62.4,29.99,NNE,30,0.0,4.0,54,0.00,,---,0.00,VWS V14.00,2013-08-18 01:01:00,
2013-08-17 18:06:00,80.4,62.8,29.99,North,360,1.0,2.0,55,0.00,,---,0.00,VWS V14.00,2013-08-18 01:06:00,
2013-08-17 18:11:00,80.2,63.6,29.99,NE,42,1.0,2.0,57,0.00,,---,0.00,VWS V14.00,2013-08-18 01:11:00,
2013-08-17 18:16:00,80.0,62.4,29.99,NE,39,0.0,3.0,55,0.00,,---,0.00,VWS V14.00,2013-08-18 01:16:00,
2013-08-17 18:21:00,80.3,62.7,29.99,WNW,296,1.0,5.0,55,0.00,,---,0.00,VWS V14.00,2013-08-18 01:21:00,
2013-08-17 18:26:00,80.4,62.2,29.99,NE,56,1.0,6.0,54,0.00,,---,0.00,VWS V14.00,2013-08-18 01:26:00,
2013-08-17 18:31:00,80.0,62.4,29.99,NE,43,2.0,6.0,55,0.00,,---,0.00,VWS V14.00,2013-08-18 01:31:00,
2013-08-17 18:36:00,79.6,62.0,29.99,North,355,0.0,3.0,55,0.00,,---,0.00,VWS V14.00,2013-08-18 01:36:00,
2013-08-17 18:41:00,79.2,62.7,29.99,NE,51,1.0,4.0,57,0.00,,---,0.00,VWS V14.00,2013-08-18 01:41:00,
2013-08-17 18:46:00,78.7,62.7,30.00,NNE,33,0.0,4.0,58,0.00,,---,0.00,VWS V14.00,2013-08-18 01:46:00,
2013-08-17 18:51:00,78.3,62.8,30.00,NNW,344,0.0,5.0,59,0.00,,---,0.00,VWS V14.00,2013-08-18 01:51:00,
2013-08-17 18:56:00,77.8,62.3,30.00,North,350,4.0,5.0,59,0.00,,---,0.00,VWS V14.00,2013-08-18 01:56:00,
2013-08-17 19:01:00,77.5,61.6,30.00,SW,220,1.0,5.0,58,0.00,,---,0.00,VWS V14.00,2013-08-18 02:01:00,
2013-08-17 19:06:00,77.2,61.8,29.99,North,360,1.0,2.0,59,0.00,,---,0.00,VWS V14.00,2013-08-18 02:06:00,
2013-08-17 19:11:00,76.9,62.4,30.00,North,360,1.0,2.0,61,0.00,,---,0.00,VWS V14.00,2013-08-18 02:11:00,
2013-08-17 19:16:00,76.5,63.0,30.00,NE,55,1.0,4.0,63,0.00,,---,0.00,VWS V14.00,2013-08-18 02:16:00,
2013-08-17 19:21:00,76.1,61.7,30.00,East,84,1.0,4.0,61,0.00,,---,0.00,VWS V14.00,2013-08-18 02:21:00,
2013-08-17 19:26:00,75.7,61.8,30.00,North,350,0.0,4.0,62,0.00,,---,0.00,VWS V14.00,2013-08-18 02:26:00,
2013-08-17 19:32:00,75.2,61.8,30.00,North,355,0.0,4.0,63,0.00,,---,0.00,VWS V14.00,2013-08-18 02:32:00,
2013-08-17 19:37:00,74.9,61.5,30.00,North,355,0.0,1.0,63,0.00,,---,0.00,VWS V14.00,2013-08-18 02:37:00,
2013-08-17 19:42:00,74.6,62.1,30.00,North,351,0.0,1.0,65,0.00,,---,0.00,VWS V14.00,2013-08-18 02:42:00,
2013-08-17 19:47:00,74.2,61.7,30.01,North,355,0.0,2.0,65,0.00,,---,0.00,VWS V14.00,2013-08-18 02:47:00,
2013-08-17 19:52:00,73.8,60.9,30.01,NW,325,2.0,3.0,64,0.00,,---,0.00,VWS V14.00,2013-08-18 02:52:00,
2013-08-17 19:57:00,73.4,60.5,30.01,North,355,1.0,3.0,64,0.00,,---,0.00,VWS V14.00,2013-08-18 02:57:00,
2013-08-17 20:02:00,72.9,60.5,30.01,NNE,19,1.0,4.0,65,0.00,,---,0.00,VWS V14.00,2013-08-18 03:02:00,
2013-08-17 20:07:00,72.4,60.8,30.01,NE,43,0.0,2.0,67,0.00,,---,0.00,VWS V14.00,2013-08-18 03:07:00,
2013-08-17 20:12:00,72.1,61.0,30.02,SE,127,0.0,2.0,68,0.00,,---,0.00,VWS V14.00,2013-08-18 03:12:00,
2013-08-17 20:17:00,71.6,60.5,30.02,NNE,28,1.0,4.0,68,0.00,,---,0.00,VWS V14.00,2013-08-18 03:17:00,
2013-08-17 20:22:00,71.3,60.6,30.02,NNE,26,1.0,4.0,69,0.00,,---,0.00,VWS V14.00,2013-08-18 03:22:00,
2013-08-17 20:27:00,70.9,59.8,30.02,NW,319,0.0,4.0,68,0.00,,---,0.00,VWS V14.00,2013-08-18 03:27:00,
2013-08-17 20:32:00,70.6,60.8,30.02,WSW,244,0.0,0.0,71,0.00,,---,0.00,VWS V14.00,2013-08-18 03:32:00,
2013-08-17 20:37:00,70.3,60.5,30.02,NE,42,1.0,2.0,71,0.00,,---,0.00,VWS V14.00,2013-08-18 03:37:00,
2013-08-17 20:42:00,70.1,60.7,30.02,NE,51,0.0,3.0,72,0.00,,---,0.00,VWS V14.00,2013-08-18 03:42:00,
2013-08-17 20:47:00,69.8,60.0,30.02,NE,51,0.0,3.0,71,0.00,,---,0.00,VWS V14.00,2013-08-18 03:47:00,
2013-08-17 20:52:00,69.5,60.5,30.02,NE,51,0.0,3.0,73,0.00,,---,0.00,VWS V14.00,2013-08-18 03:52:00,
2013-08-17 20:57:00,69.2,59.8,30.03,NE,51,0.0,3.0,72,0.00,,---,0.00,VWS V14.00,2013-08-18 03:57:00,
2013-08-17 21:01:00,69.0,60.8,30.03,NE,51,0.0,3.0,75,0.00,,---,0.00,VWS V14.00,2013-08-18 04:01:00,
2013-08-17 21:06:00,68.6,60.0,30.03,NE,34,0.0,2.0,74,0.00,,---,0.00,VWS V14.00,2013-08-18 04:06:00,
2013-08-17 21:11:00,68.3,59.7,30.04,NE,34,0.0,2.0,74,0.00,,---,0.00,VWS V14.00,2013-08-18 04:11:00,
2013-08-17 21:16:00,68.1,60.3,30.04,NE,34,0.0,2.0,76,0.00,,---,0.00,VWS V14.00,2013-08-18 04:16:00,
2013-08-17 21:21:00,67.8,60.0,30.04,NE,34,0.0,2.0,76,0.00,,---,0.00,VWS V14.00,2013-08-18 04:21:00,
2013-08-17 21:26:00,67.6,59.8,30.04,NNW,327,2.0,2.0,76,0.00,,---,0.00,VWS V14.00,2013-08-18 04:26:00,
2013-08-17 21:31:00,67.4,59.6,30.04,NNW,327,0.0,2.0,76,0.00,,---,0.00,VWS V14.00,2013-08-18 04:31:00,
2013-08-17 21:36:00,67.2,59.4,30.05,NNW,327,0.0,1.0,76,0.00,,---,0.00,VWS V14.00,2013-08-18 04:36:00,
2013-08-17 21:41:00,67.0,59.6,30.05,NNW,327,0.0,1.0,77,0.00,,---,0.00,VWS V14.00,2013-08-18 04:41:00,
2013-08-17 21:46:00,66.8,59.4,30.05,NNW,327,0.0,1.0,77,0.00,,---,0.00,VWS V14.00,2013-08-18 04:46:00,
2013-08-17 21:51:00,66.7,60.0,30.05,NNW,327,0.0,1.0,79,0.00,,---,0.00,VWS V14.00,2013-08-18 04:51:00,
2013-08-17 21:56:00,66.5,59.4,30.06,NW,307,0.0,3.0,78,0.00,,---,0.00,VWS V14.00,2013-08-18 04:56:00,
2013-08-17 22:01:00,66.3,59.6,30.06,NW,307,0.0,3.0,79,0.00,,---,0.00,VWS V14.00,2013-08-18 05:01:00,
2013-08-17 22:06:00,66.1,59.4,30.06,NW,307,0.0,1.0,79,0.00,,---,0.00,VWS V14.00,2013-08-18 05:06:00,
2013-08-17 22:12:00,65.9,59.6,30.05,NW,307,0.0,1.0,80,0.00,,---,0.00,VWS V14.00,2013-08-18 05:12:00,
2013-08-17 22:16:00,65.8,59.5,30.06,NW,307,0.0,1.0,80,0.00,,---,0.00,VWS V14.00,2013-08-18 05:16:00,
2013-08-17 22:22:00,65.6,59.6,30.05,NW,307,0.0,1.0,81,0.00,,---,0.00,VWS V14.00,2013-08-18 05:22:00,
2013-08-17 22:27:00,65.3,59.3,30.05,NW,307,0.0,1.0,81,0.00,,---,0.00,VWS V14.00,2013-08-18 05:27:00,
2013-08-17 22:32:00,65.0,59.4,30.06,NW,307,0.0,1.0,82,0.00,,---,0.00,VWS V14.00,2013-08-18 05:32:00,
2013-08-17 22:37:00,64.8,59.2,30.05,NW,307,0.0,0.0,82,0.00,,---,0.00,VWS V14.00,2013-08-18 05:37:00,
2013-08-17 22:42:00,64.6,59.0,30.05,NW,307,0.0,0.0,82,0.00,,---,0.00,VWS V14.00,2013-08-18 05:42:00,
2013-08-17 22:47:00,64.4,59.1,30.05,NW,307,0.0,0.0,83,0.00,,---,0.00,VWS V14.00,2013-08-18 05:47:00,
2013-08-17 22:52:00,64.3,59.0,30.05,NW,307,0.0,0.0,83,0.00,,---,0.00,VWS V14.00,2013-08-18 05:52:00,
2013-08-17 22:57:00,64.1,59.2,30.05,NW,307,0.0,0.0,84,0.00,,---,0.00,VWS V14.00,2013-08-18 05:57:00,
2013-08-17 23:02:00,64.0,59.1,30.06,NW,307,0.0,0.0,84,0.00,,---,0.00,VWS V14.00,2013-08-18 06:02:00,
2013-08-17 23:07:00,63.8,58.9,30.06,NW,307,0.0,0.0,84,0.00,,---,0.00,VWS V14.00,2013-08-18 06:07:00,
2013-08-17 23:12:00,63.7,58.8,30.06,NW,307,0.0,0.0,84,0.00,,---,0.00,VWS V14.00,2013-08-18 06:12:00,
2013-08-17 23:17:00,63.6,58.7,30.06,NW,307,0.0,0.0,84,0.00,,---,0.00,VWS V14.00,2013-08-18 06:17:00,
2013-08-17 23:22:00,63.4,58.5,30.06,NW,307,0.0,0.0,84,0.00,,---,0.00,VWS V14.00,2013-08-18 06:22:00,
2013-08-17 23:27:00,63.3,58.7,30.06,NW,307,0.0,0.0,85,0.00,,---,0.00,VWS V14.00,2013-08-18 06:27:00,
2013-08-17 23:32:00,63.2,58.6,30.06,NW,307,0.0,0.0,85,0.00,,---,0.00,VWS V14.00,2013-08-18 06:32:00,
2013-08-17 23:37:00,63.1,58.5,30.07,NW,307,0.0,0.0,85,0.00,,---,0.00,VWS V14.00,2013-08-18 06:37:00,
2013-08-17 23:42:00,63.0,59.1,30.07,NW,307,0.0,1.0,87,0.00,,---,0.00,VWS V14.00,2013-08-18 06:42:00,
2013-08-17 23:47:00,62.8,58.2,30.07,NW,307,0.0,1.0,85,0.00,,---,0.00,VWS V14.00,2013-08-18 06:47:00,
2013-08-17 23:52:00,62.6,58.4,30.07,NW,307,0.0,1.0,86,0.00,,---,0.00,VWS V14.00,2013-08-18 06:52:00,
2013-08-17 23:57:00,62.5,58.3,30.07,NW,307,0.0,1.0,86,0.00,,---,0.00,VWS V14.00,2013-08-18 06:57:00,